Sedalia, MO

1:43 AM CDT on July 28, 2017 (GMT -0500)
Sedalia Memorial | | Change Station
Active Advisory: Flood Warning

Elev 909 ft 38.71 °N, 93.18 °W | Updated 50 minutes ago

Clear
Clear
76 °F
Feels Like 76 °F
N
6
Wind Variable Wind from NE

Today
High -- | Low -- °F
--% Chance of Precip.
Yesterday
High -- | Low -- °F
Precip. -- in
Pressure 29.93 in
Visibility 10.0 miles
Clouds Clear
Dew Point 75 °F
Humidity 97%
Rainfall 0.00 in
Snow Depth Not available.
6:10 AM 8:26 PM
Waxing Crescent, 27% visible
METAR KDMO 280553Z AUTO 04005KT 10SM CLR 24/24 A2995 RMK AO2 SLP133 T02440239 10283 20244 403000222 58000
Pressure 29.93 in
Visibility 10.0 miles
Clouds Clear
Dew Point 75 °F
Humidity 97%
Rainfall 0.00 in
Snow Depth Not available.
6:10 AM 8:26 PM
Waxing Crescent, 27% visible
METAR KDMO 280553Z AUTO 04005KT 10SM CLR 24/24 A2995 RMK AO2 SLP133 T02440239 10283 20244 403000222 58000

Get Your Daily Forecast Email!

Thanks for signing up!

Be on the lookout for a verification email in your inbox.

You'll start receiving severe weather alerts in your inbox..

×

10-Day Weather Forecast

Almanac

Astronomy

Jul. 28, 2017 Rise Set
Actual Time
Civil Twilight
Nautical Twilight
Astronomical Twilight
Moon
Length of Visible Light
Length of Day
Tomorrow will be .
, % of the Moon is Illuminated

Today's Extremes

State Highs State Lows

Community

WunderPhotos

Category 6

Welcome to Category 6. This is the collective home for Weather Underground's featured writeups by Dr. Jeff Masters (right), Bob Henson (left), Chris Burt, and other regular contributors.

Nearby

Air Quality

  Air Quality AQ Index Pollutant
Not available.

Snow Depth

Station Depth Elevation

Earthquake Activity

City Distance Mag. Time & Date
Minimum magnitude displayed is 2.5.

Coastal Water Temperatures

Place Temperature

Stations

Nearby Weather Stations

Station Location Temp. Windchill Dew Point Humidity Wind Precip. Elev Updated Type
                   

Watches & Warnings

Flood Warning
Issued: 9:41 PM CDT Jul. 27, 2017 – National Weather Service

The Flood Warning continues for
the Blackwater river at Valley City.
* Until Saturday morning.
* At 9:00 PM Thursday the stage was 26.7 feet.
* Flood stage is 22.0 feet.
* Moderate flooding is occurring and moderate flooding is forecast.
* Forecast... the river will continue rising to near 27.1 feet by
early Friday morning. The river will fall below flood stage late
Friday morning.
* At 31.0 feet... extensive flooding of rural property and many roads
occurs.
* At 25.0 feet... County Highway E near Valley City and Highway 23
near the Perry State Wildlife Area are under water.
* At 22.0 feet... Woodlands and farm fields along the river begin to
flood.


                       Latest
location fs stage day/time forecast

Blackwater River
Valley city 22 26.7 Thu 09 PM 27.1 early Friday morning


lat... Lon 3894 9342 3882 9361 3882 9368 3891 9361 3899 9348